createdAt,value
2022-08-03T00:01:30.313Z,2.47
2022-08-03T00:03:56.952Z,1.98
2022-08-03T00:06:23.331Z,2.72
2022-08-03T00:08:49.751Z,3.40
2022-08-03T00:11:16.154Z,2.47
2022-08-03T00:13:42.607Z,4.15
2022-08-03T00:16:10.654Z,3.38
2022-08-03T00:18:37.865Z,3.17
2022-08-03T00:21:05.223Z,3.13
2022-08-03T00:23:33.483Z,0.97
2022-08-03T00:26:18.641Z,4.28
2022-08-03T00:28:45.031Z,2.83
2022-08-03T00:31:13.708Z,4.68
2022-08-03T00:33:59.263Z,6.32
2022-08-03T00:36:28.441Z,2.63
2022-08-03T00:38:55.751Z,3.90
2022-08-03T00:41:22.262Z,4.20
2022-08-03T00:43:48.688Z,3.13
2022-08-03T00:46:20.548Z,3.05
2022-08-03T00:48:52.170Z,3.60
2022-08-03T00:51:21.155Z,3.40
2022-08-03T00:53:47.743Z,3.80
2022-08-03T00:56:17.564Z,2.80
2022-08-03T00:58:45.339Z,2.80
2022-08-03T01:01:12.458Z,6.00
2022-08-03T01:03:39.275Z,7.35
2022-08-03T01:06:18.677Z,5.88
2022-08-03T01:09:06.862Z,4.20
2022-08-03T01:11:59.938Z,4.47
2022-08-03T01:14:41.008Z,3.70
2022-08-03T01:17:21.246Z,3.50
2022-08-03T01:20:02.603Z,4.18
2022-08-03T01:22:39.945Z,4.97
2022-08-03T01:25:13.978Z,5.07
2022-08-03T01:27:42.959Z,5.60
2022-08-03T01:30:10.963Z,3.83
2022-08-03T01:33:00.029Z,4.72
2022-08-03T01:35:41.705Z,4.10
2022-08-03T01:38:22.640Z,3.13
2022-08-03T01:40:53.881Z,5.63
2022-08-03T01:43:55.165Z,4.50
2022-08-03T01:46:11.592Z,4.53
2022-08-03T01:48:40.127Z,8.93
2022-08-03T01:51:09.118Z,5.60
2022-08-03T01:53:36.999Z,3.93
2022-08-03T01:56:06.246Z,6.88
2022-08-03T01:58:35.915Z,8.80
2022-08-03T02:01:04.850Z,3.45
2022-08-03T02:03:36.771Z,4.97
2022-08-03T02:06:59.661Z,2.63
2022-08-03T02:08:53.015Z,8.43
2022-08-03T02:11:19.804Z,4.80
2022-08-03T02:13:48.391Z,6.95
2022-08-03T02:16:14.809Z,3.17
2022-08-03T02:18:42.398Z,9.33
2022-08-03T02:21:11.836Z,3.67
2022-08-03T02:23:58.170Z,7.55
2022-08-03T02:26:29.772Z,3.92
2022-08-03T02:28:59.418Z,7.30
2022-08-03T02:31:30.698Z,4.47
2022-08-03T02:34:02.202Z,5.03
2022-08-03T02:36:31.769Z,7.70
2022-08-03T02:39:00.878Z,6.10
2022-08-03T02:41:41.128Z,7.15
2022-08-03T02:44:09.770Z,10.33
2022-08-03T02:46:38.807Z,6.93
2022-08-03T02:49:50.821Z,6.72
2022-08-03T02:51:55.383Z,5.30
2022-08-03T02:54:24.944Z,8.13
2022-08-03T02:56:53.792Z,6.83
2022-08-03T02:59:21.395Z,8.23
2022-08-03T03:01:48.933Z,13.25
2022-08-03T03:04:16.435Z,4.95
2022-08-03T03:06:43.997Z,3.78
2022-08-03T03:09:13.610Z,2.43
2022-08-03T03:11:41.327Z,8.68
2022-08-03T03:14:10.350Z,3.60
2022-08-03T03:16:37.128Z,6.43
2022-08-03T03:19:04.202Z,7.10
2022-08-03T03:21:32.009Z,5.53
2022-08-03T03:23:59.797Z,7.57
2022-08-03T03:26:26.344Z,3.88
2022-08-03T03:28:53.034Z,2.58
2022-08-03T03:31:19.485Z,7.57
2022-08-03T03:33:46.514Z,8.47
2022-08-03T03:36:12.903Z,6.32
2022-08-03T03:38:39.355Z,5.72
2022-08-03T03:41:05.743Z,7.18
2022-08-03T03:43:32.310Z,5.80
2022-08-03T03:45:59.432Z,9.70
2022-08-03T03:48:26.360Z,7.57
2022-08-03T03:50:52.974Z,8.73
2022-08-03T03:53:19.676Z,9.57
2022-08-03T03:55:57.928Z,11.18
2022-08-03T03:58:29.543Z,5.93
2022-08-03T04:00:56.074Z,5.07
2022-08-03T04:03:22.505Z,7.80
2022-08-03T04:06:07.538Z,6.85
2022-08-03T04:09:02.855Z,5.47
2022-08-03T04:11:36.670Z,14.53
2022-08-03T04:14:08.008Z,6.97
2022-08-03T04:16:43.170Z,7.93
2022-08-03T04:19:30.310Z,6.00
2022-08-03T04:22:00.839Z,7.75
2022-08-03T04:24:32.974Z,6.33
2022-08-03T04:27:02.552Z,5.30
2022-08-03T04:29:33.534Z,7.20
2022-08-03T04:32:00.938Z,5.75
2022-08-03T04:34:29.472Z,4.72
2022-08-03T04:36:59.731Z,8.43
2022-08-03T04:39:31.762Z,10.63
2022-08-03T04:42:08.077Z,10.35
2022-08-03T04:44:42.461Z,5.65
2022-08-03T04:47:09.072Z,5.80
2022-08-03T04:49:39.827Z,11.07
2022-08-03T04:52:08.683Z,6.45
2022-08-03T04:54:50.532Z,15.23
2022-08-03T04:57:22.726Z,5.78
2022-08-03T05:00:02.257Z,9.80
2022-08-03T05:02:30.979Z,5.37
2022-08-03T05:04:57.861Z,19.33
2022-08-03T05:07:25.093Z,8.48
2022-08-03T05:09:57.679Z,11.75
2022-08-03T05:12:32.772Z,6.05
2022-08-03T05:15:00.129Z,8.93
2022-08-03T05:17:26.647Z,9.00
2022-08-03T05:19:53.016Z,6.75
2022-08-03T05:22:20.102Z,8.25
2022-08-03T05:24:46.653Z,6.85
2022-08-03T05:27:19.050Z,8.23
2022-08-03T05:29:50.271Z,12.63
2022-08-03T05:32:18.052Z,8.57
2022-08-03T05:34:44.567Z,7.85
2022-08-03T05:37:11.416Z,9.13
2022-08-03T05:39:38.201Z,8.73
2022-08-03T05:42:04.615Z,11.85
2022-08-03T05:44:31.704Z,6.30
2022-08-03T05:46:59.138Z,12.50
2022-08-03T05:49:25.537Z,8.52
2022-08-03T05:52:00.374Z,7.13
2022-08-03T05:54:55.920Z,6.20
2022-08-03T05:57:24.651Z,12.40
2022-08-03T05:59:53.913Z,9.98
2022-08-03T06:02:26.128Z,8.68
2022-08-03T06:04:52.501Z,7.53
2022-08-03T06:07:18.899Z,13.90
2022-08-03T06:10:34.109Z,7.05
2022-08-03T06:12:31.735Z,8.70
2022-08-03T06:14:58.082Z,5.43
2022-08-03T06:17:24.462Z,14.20
2022-08-03T06:19:53.799Z,7.60
2022-08-03T06:22:20.405Z,12.27
2022-08-03T06:24:53.400Z,17.35
2022-08-03T06:27:20.643Z,8.52
2022-08-03T06:30:03.770Z,7.50
2022-08-03T06:32:30.166Z,7.57
2022-08-03T06:34:56.550Z,10.00
2022-08-03T06:37:24.461Z,4.22
2022-08-03T06:39:50.823Z,8.80
2022-08-03T06:42:17.416Z,7.93
2022-08-03T06:44:43.916Z,8.98
2022-08-03T06:47:10.266Z,8.32
2022-08-03T06:49:36.750Z,9.55
2022-08-03T06:52:07.066Z,7.40
2022-08-03T06:54:33.761Z,12.83
2022-08-03T06:57:00.194Z,11.77
2022-08-03T07:00:08.851Z,9.27
2022-08-03T07:02:13.134Z,13.32
2022-08-03T07:04:45.934Z,8.30
2022-08-03T07:07:12.326Z,12.03
2022-08-03T07:09:38.681Z,7.57
2022-08-03T07:12:08.297Z,8.70
2022-08-03T07:14:34.972Z,6.07
2022-08-03T07:17:01.469Z,16.40
2022-08-03T07:19:31.023Z,14.00
2022-08-03T07:22:02.119Z,10.88
2022-08-03T07:24:29.162Z,14.82
2022-08-03T07:26:55.574Z,13.40
2022-08-03T07:29:21.967Z,10.23
2022-08-03T07:31:48.404Z,9.53
2022-08-03T07:34:15.093Z,14.88
2022-08-03T07:36:41.461Z,7.90
2022-08-03T07:39:15.347Z,9.85
2022-08-03T07:41:44.347Z,10.95
2022-08-03T07:44:10.733Z,9.63
2022-08-03T07:46:37.471Z,13.18
2022-08-03T07:49:03.929Z,6.47
2022-08-03T07:51:30.383Z,16.63
2022-08-03T07:53:57.704Z,10.77
2022-08-03T07:56:27.999Z,8.80
2022-08-03T07:58:55.484Z,7.95
2022-08-03T08:01:22.487Z,6.15
2022-08-03T08:03:52.652Z,7.68
2022-08-03T08:06:19.724Z,7.10
2022-08-03T08:08:46.488Z,9.93
2022-08-03T08:11:13.246Z,10.55
2022-08-03T08:13:39.647Z,11.30
2022-08-03T08:16:06.376Z,7.60
2022-08-03T08:18:32.832Z,14.65
2022-08-03T08:21:01.418Z,16.30
2022-08-03T08:23:41.781Z,16.60
2022-08-03T08:26:10.451Z,8.77
2022-08-03T08:28:36.856Z,17.00
2022-08-03T08:31:03.393Z,10.00
2022-08-03T08:36:16.340Z,7.80
2022-08-03T08:38:44.530Z,11.07
2022-08-03T08:41:11.629Z,8.80
2022-08-03T08:43:38.087Z,15.80
2022-08-03T08:46:07.974Z,7.33
2022-08-03T08:48:36.354Z,9.60
2022-08-03T08:51:03.360Z,18.08
2022-08-03T08:53:33.047Z,12.10
2022-08-03T08:56:01.092Z,14.07
2022-08-03T08:58:37.803Z,9.37
2022-08-03T09:01:05.258Z,15.07
2022-08-03T09:03:34.138Z,10.98
2022-08-03T09:06:02.018Z,12.23
2022-08-03T09:08:34.160Z,15.00
2022-08-03T09:11:00.629Z,13.37
2022-08-03T09:13:27.310Z,8.73
2022-08-03T09:16:16.287Z,9.45
2022-08-03T09:18:44.893Z,12.75
2022-08-03T09:21:35.548Z,11.80
2022-08-03T09:24:08.377Z,18.20
2022-08-03T09:26:37.966Z,11.90
2022-08-03T09:29:14.817Z,9.25
2022-08-03T09:31:44.521Z,12.80
2022-08-03T09:34:14.568Z,12.45
2022-08-03T09:36:46.379Z,7.37
2022-08-03T09:39:15.996Z,15.02
2022-08-03T09:42:04.895Z,6.72
2022-08-03T09:44:42.120Z,10.68
2022-08-03T09:47:10.198Z,7.57
2022-08-03T09:49:37.952Z,11.20
2022-08-03T09:52:37.945Z,11.73
2022-08-03T09:55:23.655Z,8.68
2022-08-03T09:58:07.157Z,10.32
2022-08-03T10:00:53.800Z,12.65
2022-08-03T10:03:20.471Z,10.60
2022-08-03T10:05:47.024Z,12.75
2022-08-03T10:08:19.017Z,15.85
2022-08-03T10:10:49.615Z,9.15
2022-08-03T10:13:19.249Z,15.98
2022-08-03T10:16:22.505Z,11.97
2022-08-03T10:18:32.932Z,7.30
2022-08-03T10:21:04.525Z,8.00
2022-08-03T10:23:37.678Z,7.53
2022-08-03T10:26:07.146Z,9.05
2022-08-03T10:28:45.071Z,12.60
2022-08-03T10:31:13.881Z,12.63
2022-08-03T10:33:49.518Z,7.75
2022-08-03T10:36:20.475Z,16.15
2022-08-03T10:38:52.618Z,11.48
2022-08-03T10:41:25.893Z,14.43
2022-08-03T10:44:09.685Z,11.32
2022-08-03T10:46:44.167Z,11.75
2022-08-03T10:49:17.215Z,10.98
2022-08-03T10:52:00.639Z,9.10
2022-08-03T10:54:58.950Z,9.97
2022-08-03T10:57:58.436Z,9.88
2022-08-03T11:00:27.496Z,15.48
2022-08-03T11:03:12.550Z,5.60
2022-08-03T11:05:41.952Z,11.13
2022-08-03T11:08:36.749Z,11.23
2022-08-03T11:11:18.595Z,9.93
2022-08-03T11:14:07.488Z,7.60
2022-08-03T11:16:50.114Z,9.48
2022-08-03T11:19:22.320Z,10.60
2022-08-03T11:21:48.883Z,12.37
2022-08-03T11:24:41.408Z,11.52
2022-08-03T11:27:24.198Z,12.43
2022-08-03T11:30:01.125Z,7.47
2022-08-03T11:32:50.270Z,8.68
2022-08-03T11:35:18.497Z,7.17
2022-08-03T11:38:03.324Z,8.38
2022-08-03T11:40:34.478Z,6.45
2022-08-03T11:43:01.885Z,4.38
2022-08-03T11:45:28.388Z,6.97
2022-08-03T11:47:55.747Z,8.37
2022-08-03T11:50:22.476Z,8.30
2022-08-03T11:52:50.133Z,5.97
2022-08-03T11:55:20.281Z,6.70
2022-08-03T11:58:58.106Z,7.05
2022-08-03T12:00:33.594Z,8.97
2022-08-03T12:03:09.018Z,6.20
2022-08-03T12:05:51.509Z,5.03
2022-08-03T12:08:30.987Z,6.97
2022-08-03T12:11:00.109Z,8.38
2022-08-03T12:14:08.891Z,6.50
2022-08-03T12:16:21.302Z,10.43
2022-08-03T12:18:59.135Z,6.75
2022-08-03T12:21:25.659Z,10.68
2022-08-03T12:23:58.938Z,6.68
2022-08-03T12:26:26.795Z,8.23
2022-08-03T12:28:53.167Z,5.68
2022-08-03T12:31:19.683Z,7.80
2022-08-03T12:33:59.679Z,10.75
2022-08-03T12:36:27.580Z,10.30
2022-08-03T12:38:57.058Z,7.00
2022-08-03T12:41:38.290Z,9.25
2022-08-03T12:44:06.184Z,7.47
2022-08-03T12:46:35.337Z,6.95
2022-08-03T12:49:11.997Z,2.75
2022-08-03T12:52:02.849Z,5.10
2022-08-03T12:54:35.857Z,4.15
2022-08-03T12:57:03.557Z,7.18
2022-08-03T12:59:34.873Z,5.95
2022-08-03T13:02:04.523Z,3.85
2022-08-03T13:04:36.508Z,7.43
2022-08-03T13:07:14.268Z,3.58
2022-08-03T13:09:43.447Z,4.13
2022-08-03T13:12:12.743Z,4.25
2022-08-03T13:14:39.667Z,8.32
2022-08-03T13:17:06.998Z,2.93
2022-08-03T13:19:34.637Z,7.32
2022-08-03T13:22:04.602Z,3.30
2022-08-03T13:24:32.398Z,2.50
2022-08-03T13:26:59.750Z,5.20
2022-08-03T13:29:26.189Z,2.77
2022-08-03T13:31:52.732Z,6.85
2022-08-03T13:34:22.905Z,5.82
2022-08-03T13:37:08.425Z,2.85
2022-08-03T13:39:48.097Z,5.90
2022-08-03T13:42:22.410Z,3.00
2022-08-03T13:44:48.809Z,4.95
2022-08-03T13:47:15.214Z,4.43
2022-08-03T13:49:42.031Z,2.80
2022-08-03T13:52:25.911Z,7.05
2022-08-03T13:54:52.322Z,1.67
2022-08-03T13:58:03.797Z,5.72
2022-08-03T14:00:06.839Z,4.10
2022-08-03T14:02:33.333Z,6.15
2022-08-03T14:04:59.688Z,1.80
2022-08-03T14:07:26.103Z,4.70
2022-08-03T14:09:52.441Z,3.05
2022-08-03T14:12:18.869Z,7.75
2022-08-03T14:14:45.231Z,2.65
2022-08-03T14:17:11.587Z,4.50
2022-08-03T14:19:52.745Z,3.50
2022-08-03T14:22:20.612Z,4.32
2022-08-03T14:24:46.982Z,2.15
2022-08-03T14:27:13.422Z,2.13
2022-08-03T14:29:39.771Z,2.00
2022-08-03T14:32:10.025Z,3.10
2022-08-03T14:34:39.242Z,3.55
2022-08-03T14:37:05.850Z,3.22
2022-08-03T14:42:20.185Z,4.47
2022-08-03T14:44:46.684Z,2.07
2022-08-03T14:47:13.767Z,2.78
2022-08-03T14:50:31.359Z,5.50
2022-08-03T14:52:26.722Z,2.08
2022-08-03T14:54:53.125Z,1.73
2022-08-03T14:57:19.757Z,7.13
2022-08-03T14:59:55.701Z,2.63
2022-08-03T15:02:28.253Z,3.70
2022-08-03T15:04:54.670Z,4.13
2022-08-03T15:07:21.253Z,3.88
2022-08-03T15:09:47.938Z,4.90
2022-08-03T15:12:14.352Z,2.33
2022-08-03T15:14:40.888Z,4.82
2022-08-03T15:17:07.816Z,10.15
2022-08-03T15:20:03.680Z,3.63
2022-08-03T15:22:25.447Z,4.27
2022-08-03T15:25:04.302Z,6.65
2022-08-03T15:28:04.035Z,3.40
2022-08-03T15:30:31.433Z,3.08
2022-08-03T15:32:57.817Z,2.70
2022-08-03T15:35:24.288Z,4.70
2022-08-03T15:37:51.764Z,2.40
2022-08-03T15:40:18.145Z,3.72
2022-08-03T15:42:44.513Z,7.25
2022-08-03T15:45:11.328Z,5.55
2022-08-03T15:47:39.373Z,2.80
2022-08-03T15:50:09.590Z,1.92
2022-08-03T15:52:36.338Z,6.32
2022-08-03T15:55:02.923Z,6.68
2022-08-03T15:57:29.299Z,3.72
2022-08-03T15:59:55.756Z,3.60
2022-08-03T16:02:22.223Z,2.25
2022-08-03T16:04:48.723Z,4.50
2022-08-03T16:07:15.738Z,2.22
2022-08-03T16:09:44.069Z,1.70
2022-08-03T16:12:15.578Z,4.80
2022-08-03T16:14:51.926Z,2.40
2022-08-03T16:17:19.343Z,2.53
2022-08-03T16:19:46.095Z,4.10
2022-08-03T16:22:12.845Z,2.83
2022-08-03T16:24:40.851Z,2.17
2022-08-03T16:27:10.259Z,6.07
2022-08-03T16:29:44.754Z,2.60
2022-08-03T16:32:11.552Z,4.05
2022-08-03T16:34:39.275Z,7.07
2022-08-03T16:37:35.325Z,3.70
2022-08-03T16:39:53.341Z,3.40
2022-08-03T16:42:19.711Z,2.63
2022-08-03T16:44:46.080Z,4.18
2022-08-03T16:47:22.261Z,4.53
2022-08-03T16:49:55.088Z,2.30
2022-08-03T16:52:23.782Z,3.60
2022-08-03T16:54:53.579Z,3.22
2022-08-03T16:57:56.028Z,8.52
2022-08-03T17:00:12.562Z,3.85
2022-08-03T17:03:00.851Z,2.90
2022-08-03T17:05:43.718Z,2.33
2022-08-03T17:08:14.822Z,3.00
2022-08-03T17:10:45.257Z,4.00
2022-08-03T17:13:21.852Z,6.07
2022-08-03T17:15:58.110Z,3.70
2022-08-03T17:18:33.321Z,9.25
2022-08-03T17:21:03.902Z,5.05
2022-08-03T17:23:39.076Z,3.45
2022-08-03T17:26:21.182Z,2.92
2022-08-03T17:28:56.465Z,1.67
2022-08-03T17:31:31.409Z,2.53
2022-08-03T17:34:00.992Z,3.38
2022-08-03T17:36:47.615Z,3.83
2022-08-03T17:39:27.075Z,9.93
2022-08-03T17:42:39.101Z,2.03
2022-08-03T17:44:55.334Z,2.78
2022-08-03T17:47:22.939Z,2.35
2022-08-03T17:49:56.831Z,6.53
2022-08-03T17:52:37.491Z,4.25
2022-08-03T17:55:55.336Z,5.50
2022-08-03T17:58:08.269Z,7.05
2022-08-03T18:00:55.727Z,6.30
2022-08-03T18:03:57.899Z,2.63
2022-08-03T18:06:30.405Z,2.03
2022-08-03T18:09:04.755Z,4.07
2022-08-03T18:11:37.080Z,3.83
2022-08-03T18:14:17.195Z,3.00
2022-08-03T18:16:57.475Z,3.03
2022-08-03T18:20:02.184Z,2.42
2022-08-03T18:22:13.878Z,4.30
2022-08-03T18:24:42.185Z,1.45
2022-08-03T18:27:10.604Z,2.75
2022-08-03T18:29:37.730Z,3.30
2022-08-03T18:32:21.913Z,3.08
2022-08-03T18:34:54.348Z,3.73
2022-08-03T18:37:25.108Z,2.90
2022-08-03T18:39:54.646Z,2.63
2022-08-03T18:42:25.942Z,3.55
2022-08-03T18:44:56.240Z,5.20
2022-08-03T18:47:52.550Z,3.37
2022-08-03T18:50:22.015Z,5.22
2022-08-03T18:52:54.547Z,4.43
2022-08-03T18:55:33.455Z,1.65
2022-08-03T18:58:09.498Z,2.10
2022-08-03T19:01:57.501Z,1.63
2022-08-03T19:04:09.688Z,2.17
2022-08-03T19:06:42.000Z,3.20
2022-08-03T19:09:33.302Z,3.08
2022-08-03T19:12:13.899Z,5.18
2022-08-03T19:14:56.228Z,2.80
2022-08-03T19:17:29.257Z,4.65
2022-08-03T19:19:58.304Z,2.45
2022-08-03T19:22:27.970Z,7.55
2022-08-03T19:24:58.335Z,2.40
2022-08-03T19:27:26.961Z,4.03
2022-08-03T19:29:59.835Z,6.60
2022-08-03T19:32:30.833Z,3.53
2022-08-03T19:34:59.439Z,4.65
2022-08-03T19:37:38.557Z,2.70
2022-08-03T19:40:10.797Z,3.03
2022-08-03T19:42:42.666Z,2.88
2022-08-03T19:45:14.494Z,4.43
2022-08-03T19:48:09.683Z,3.85
2022-08-03T19:50:37.298Z,2.75
2022-08-03T19:53:12.773Z,4.17
2022-08-03T19:55:48.852Z,2.58
2022-08-03T19:58:17.637Z,2.10
2022-08-03T20:00:55.503Z,3.33
2022-08-03T20:03:24.853Z,6.95
2022-08-03T20:05:52.142Z,3.80
2022-08-03T20:08:21.032Z,4.53
2022-08-03T20:10:48.895Z,3.40
2022-08-03T20:13:19.503Z,4.68
2022-08-03T20:15:46.440Z,4.45
2022-08-03T20:18:16.480Z,5.13
2022-08-03T20:20:50.239Z,5.00
2022-08-03T20:23:19.203Z,2.92
2022-08-03T20:25:57.257Z,4.75
2022-08-03T20:28:30.540Z,3.28
2022-08-03T20:30:57.489Z,3.83
2022-08-03T20:33:27.989Z,3.03
2022-08-03T20:36:13.329Z,3.92
2022-08-03T20:41:30.600Z,2.25
2022-08-03T20:43:59.167Z,3.30
2022-08-03T20:46:32.617Z,1.38
2022-08-03T20:49:06.144Z,3.13
2022-08-03T20:51:49.820Z,1.52
2022-08-03T20:54:28.937Z,4.40
2022-08-03T20:56:57.728Z,2.83
2022-08-03T20:59:28.741Z,4.18
2022-08-03T21:01:56.951Z,3.15
2022-08-03T21:04:23.880Z,3.45
2022-08-03T21:06:57.440Z,5.60
2022-08-03T21:09:33.334Z,2.50
2022-08-03T21:12:02.979Z,5.00
2022-08-03T21:13:13.458Z,3.60
2022-08-03T21:14:45.330Z,5.68
2022-08-03T21:17:25.076Z,2.13
2022-08-03T21:20:00.685Z,1.85
2022-08-03T21:22:32.322Z,2.30
2022-08-03T21:25:02.132Z,2.67
2022-08-03T21:27:31.655Z,4.75
2022-08-03T21:30:04.476Z,1.55
2022-08-03T21:32:33.261Z,4.80
2022-08-03T21:35:00.697Z,1.37
2022-08-03T21:37:28.316Z,3.72
2022-08-03T21:39:56.466Z,2.75
2022-08-03T21:42:23.821Z,3.45
2022-08-03T21:44:51.798Z,4.80
2022-08-03T21:47:19.731Z,3.10
2022-08-03T21:49:52.010Z,1.63
2022-08-03T21:52:39.948Z,1.52
2022-08-03T21:55:07.544Z,4.10
2022-08-03T21:57:37.664Z,1.88
2022-08-03T22:00:17.027Z,3.03
2022-08-03T22:02:53.193Z,2.75
2022-08-03T22:05:42.523Z,1.13
2022-08-03T22:08:09.507Z,4.03
2022-08-03T22:10:36.811Z,2.78
2022-08-03T22:13:03.375Z,2.87
2022-08-03T22:15:30.534Z,2.13
2022-08-03T22:17:57.467Z,3.50
2022-08-03T22:20:24.516Z,8.73
2022-08-03T22:22:55.957Z,2.10
2022-08-03T22:25:28.910Z,5.60
2022-08-03T22:27:56.929Z,8.70
2022-08-03T22:30:23.331Z,3.75
2022-08-03T22:32:53.140Z,3.47
2022-08-03T22:35:21.115Z,3.95
2022-08-03T22:37:49.503Z,2.67
2022-08-03T22:40:16.572Z,1.52
2022-08-03T22:42:45.933Z,3.30
2022-08-03T22:45:12.628Z,3.50
2022-08-03T22:47:59.815Z,2.88
2022-08-03T22:50:31.716Z,3.07
2022-08-03T22:52:59.431Z,4.43
2022-08-03T22:55:27.366Z,2.60
2022-08-03T22:57:55.804Z,3.67
2022-08-03T23:00:23.982Z,3.58
2022-08-03T23:02:51.564Z,3.73
2022-08-03T23:06:01.646Z,3.95
2022-08-03T23:08:11.230Z,7.40
2022-08-03T23:10:40.721Z,6.90
2022-08-03T23:13:10.909Z,3.67
2022-08-03T23:15:37.651Z,2.70
2022-08-03T23:18:06.269Z,4.68
2022-08-03T23:20:33.063Z,2.33
2022-08-03T23:23:00.517Z,1.77
2022-08-03T23:25:27.054Z,2.53
2022-08-03T23:28:04.598Z,7.73
2022-08-03T23:30:34.614Z,2.50
2022-08-03T23:33:02.183Z,6.22
2022-08-03T23:36:18.705Z,2.65
2022-08-03T23:38:36.791Z,3.00
2022-08-03T23:41:04.848Z,3.83
2022-08-03T23:43:51.653Z,5.05
2022-08-03T23:46:21.150Z,5.25
2022-08-03T23:48:47.542Z,2.13
2022-08-03T23:51:27.130Z,7.07
2022-08-03T23:54:26.585Z,7.67
2022-08-03T23:57:17.430Z,2.05
2022-08-03T23:59:54.874Z,4.60
